createdAt,value
2019-03-30T00:01:09.697Z,21.13
2019-03-30T00:05:29.063Z,21.13
2019-03-30T00:09:49.157Z,19.80
2019-03-30T00:14:08.497Z,19.90
2019-03-30T00:18:27.651Z,20.00
2019-03-30T00:22:48.584Z,20.03
2019-03-30T00:27:07.954Z,20.17
2019-03-30T00:31:27.174Z,20.60
2019-03-30T00:35:52.057Z,21.70
2019-03-30T00:40:16.950Z,20.33
2019-03-30T00:44:38.020Z,20.43
2019-03-30T00:49:00.423Z,21.93
2019-03-30T00:53:20.184Z,20.60
2019-03-30T00:57:39.545Z,20.87
2019-03-30T01:01:58.734Z,20.50
2019-03-30T01:06:18.881Z,19.80
2019-03-30T01:10:38.221Z,20.40
2019-03-30T01:14:57.267Z,20.90
2019-03-30T01:19:16.383Z,21.27
2019-03-30T01:23:35.337Z,21.80
2019-03-30T01:27:54.746Z,20.77
2019-03-30T01:32:13.869Z,21.00
2019-03-30T01:36:33.138Z,21.77
2019-03-30T01:40:53.493Z,21.40
2019-03-30T01:45:12.715Z,21.63
2019-03-30T01:49:32.084Z,21.13
2019-03-30T01:53:51.531Z,21.40
2019-03-30T01:58:11.232Z,23.53
2019-03-30T02:02:30.481Z,22.33
2019-03-30T02:06:50.168Z,23.13
2019-03-30T02:11:09.234Z,21.70
2019-03-30T02:15:28.310Z,21.77
2019-03-30T02:19:48.506Z,22.17
2019-03-30T02:24:07.557Z,22.47
2019-03-30T02:28:26.519Z,21.20
2019-03-30T02:32:45.496Z,21.10
2019-03-30T02:37:04.527Z,21.40
2019-03-30T02:41:24.862Z,23.43
2019-03-30T02:45:43.866Z,21.77
2019-03-30T02:50:02.881Z,21.40
2019-03-30T02:54:21.851Z,21.30
2019-03-30T02:58:40.854Z,20.63
2019-03-30T03:02:59.836Z,22.33
2019-03-30T03:07:19.281Z,23.33
2019-03-30T03:11:38.855Z,22.17
2019-03-30T03:15:58.257Z,21.40
2019-03-30T03:20:17.519Z,21.17
2019-03-30T03:24:36.656Z,21.37
2019-03-30T03:28:55.921Z,22.30
2019-03-30T03:33:14.961Z,21.87
2019-03-30T03:37:44.628Z,21.77
2019-03-30T03:41:55.123Z,21.63
2019-03-30T03:46:13.999Z,21.33
2019-03-30T03:50:44.080Z,21.27
2019-03-30T03:55:03.283Z,21.00
2019-03-30T03:59:26.091Z,21.30
2019-03-30T04:03:47.429Z,21.00
2019-03-30T04:08:11.945Z,21.07
2019-03-30T04:12:35.582Z,21.63
2019-03-30T04:16:54.559Z,20.97
2019-03-30T04:21:13.857Z,21.30
2019-03-30T04:25:33.619Z,20.40
2019-03-30T04:29:53.108Z,19.97
2019-03-30T04:34:12.084Z,21.30
2019-03-30T04:38:31.491Z,21.63
2019-03-30T04:42:50.468Z,19.90
2019-03-30T04:47:09.802Z,20.67
2019-03-30T04:51:28.749Z,20.00
2019-03-30T04:55:49.522Z,20.27
2019-03-30T05:00:09.205Z,20.57
2019-03-30T05:04:28.169Z,21.37
2019-03-30T05:08:47.566Z,20.80
2019-03-30T05:13:06.735Z,20.00
2019-03-30T05:17:26.377Z,20.23
2019-03-30T05:21:45.706Z,20.37
2019-03-30T05:26:04.738Z,20.27
2019-03-30T05:30:23.781Z,20.37
2019-03-30T05:34:42.822Z,20.00
2019-03-30T05:39:01.822Z,20.60
2019-03-30T05:43:21.486Z,20.50
2019-03-30T05:47:41.384Z,20.13
2019-03-30T05:52:00.708Z,20.03
2019-03-30T05:56:19.723Z,20.40
2019-03-30T06:00:38.704Z,20.03
2019-03-30T06:04:58.912Z,19.80
2019-03-30T06:09:17.961Z,20.70
2019-03-30T06:13:36.971Z,20.70
2019-03-30T06:17:56.960Z,20.57
2019-03-30T06:22:16.226Z,20.07
2019-03-30T06:26:36.232Z,20.07
2019-03-30T06:30:55.267Z,20.93
2019-03-30T06:35:16.332Z,21.10
2019-03-30T06:39:37.150Z,20.53
2019-03-30T06:43:56.264Z,20.67
2019-03-30T06:48:15.454Z,20.60
2019-03-30T06:52:34.814Z,20.97
2019-03-30T06:56:53.698Z,21.77
2019-03-30T07:01:13.061Z,21.20
2019-03-30T07:05:42.078Z,21.00
2019-03-30T07:10:07.425Z,22.37
2019-03-30T07:14:35.833Z,20.37
2019-03-30T07:19:03.046Z,19.73
2019-03-30T07:23:22.071Z,21.47
2019-03-30T07:27:42.784Z,19.50
2019-03-30T07:32:02.138Z,20.67
2019-03-30T07:36:21.342Z,19.00
2019-03-30T07:40:40.752Z,19.30
2019-03-30T07:45:01.201Z,21.07
2019-03-30T07:49:21.457Z,19.90
2019-03-30T07:53:44.700Z,20.43
2019-03-30T07:58:01.905Z,20.50
2019-03-30T08:02:21.316Z,20.97
2019-03-30T08:06:46.891Z,22.00
2019-03-30T08:11:14.463Z,21.37
2019-03-30T08:15:35.904Z,22.97
2019-03-30T08:19:55.031Z,21.27
2019-03-30T08:24:15.304Z,20.70
2019-03-30T08:28:34.757Z,20.13
2019-03-30T08:32:54.391Z,20.40
2019-03-30T08:37:13.941Z,18.70
2019-03-30T08:41:33.012Z,17.07
2019-03-30T08:45:51.973Z,16.43
2019-03-30T08:50:11.433Z,17.17
2019-03-30T08:54:30.361Z,17.00
2019-03-30T08:58:49.526Z,18.20
2019-03-30T09:03:09.151Z,17.40
2019-03-30T09:07:28.056Z,17.67
2019-03-30T09:11:47.109Z,16.73
2019-03-30T09:16:08.387Z,16.83
2019-03-30T09:20:32.988Z,18.20
2019-03-30T09:24:53.326Z,15.93
2019-03-30T09:29:12.400Z,15.87
2019-03-30T09:33:31.372Z,17.17
2019-03-30T09:37:50.411Z,15.90
2019-03-30T09:42:09.535Z,15.40
2019-03-30T09:46:34.546Z,15.40
2019-03-30T09:50:54.841Z,14.60
2019-03-30T09:55:14.656Z,15.03
2019-03-30T09:59:33.685Z,13.73
2019-03-30T10:03:57.246Z,13.57
2019-03-30T10:08:27.242Z,13.90
2019-03-30T10:12:46.738Z,13.67
2019-03-30T10:17:06.508Z,13.60
2019-03-30T10:21:25.991Z,16.00
2019-03-30T10:25:45.011Z,12.40
2019-03-30T10:30:04.377Z,14.30
2019-03-30T10:34:23.499Z,13.03
2019-03-30T10:38:42.673Z,15.53
2019-03-30T10:43:01.686Z,12.70
2019-03-30T10:47:21.133Z,11.90
2019-03-30T10:51:41.571Z,11.93
2019-03-30T10:56:00.685Z,12.43
2019-03-30T11:00:51.236Z,11.90
2019-03-30T11:05:12.184Z,11.77
2019-03-30T11:09:31.758Z,12.73
2019-03-30T11:13:50.701Z,11.13
2019-03-30T11:18:10.124Z,10.50
2019-03-30T11:22:29.632Z,10.80
2019-03-30T11:26:48.733Z,9.73
2019-03-30T11:31:08.729Z,10.13
2019-03-30T11:35:28.150Z,8.70
2019-03-30T11:39:47.217Z,10.17
2019-03-30T11:44:06.215Z,8.63
2019-03-30T11:48:25.484Z,9.03
2019-03-30T11:52:44.660Z,9.83
2019-03-30T11:57:03.947Z,9.57
2019-03-30T12:01:24.114Z,8.27
2019-03-30T12:05:43.078Z,8.87
2019-03-30T12:10:02.393Z,9.53
2019-03-30T12:14:22.077Z,8.60
2019-03-30T12:18:41.149Z,9.00
2019-03-30T12:23:01.019Z,8.67
2019-03-30T12:27:21.054Z,9.60
2019-03-30T12:31:40.033Z,9.00
2019-03-30T12:35:59.078Z,9.47
2019-03-30T12:40:19.461Z,9.20
2019-03-30T12:44:38.611Z,8.00
2019-03-30T12:48:57.601Z,7.77
2019-03-30T12:53:16.539Z,7.23
2019-03-30T12:57:35.943Z,8.57
2019-03-30T13:01:55.793Z,8.40
2019-03-30T13:06:16.334Z,8.07
2019-03-30T13:10:35.246Z,7.93
2019-03-30T13:14:55.419Z,10.73
2019-03-30T13:19:14.772Z,9.13
2019-03-30T13:23:33.825Z,9.93
2019-03-30T13:27:53.737Z,9.57
2019-03-30T13:32:13.110Z,8.50
2019-03-30T13:36:42.548Z,11.50
2019-03-30T13:41:01.616Z,9.37
2019-03-30T13:45:20.462Z,9.20
2019-03-30T13:49:40.553Z,9.63
2019-03-30T13:53:59.584Z,8.63
2019-03-30T13:58:20.487Z,8.47
2019-03-30T14:02:43.837Z,9.67
2019-03-30T14:07:09.050Z,7.97
2019-03-30T14:11:36.882Z,7.90
2019-03-30T14:16:07.673Z,8.67
2019-03-30T14:20:29.237Z,8.03
2019-03-30T14:24:54.052Z,9.93
2019-03-30T14:29:20.756Z,8.40
2019-03-30T14:33:41.830Z,9.93
2019-03-30T14:38:01.185Z,7.83
2019-03-30T14:42:21.533Z,7.57
2019-03-30T14:46:40.474Z,7.00
2019-03-30T14:50:59.768Z,7.70
2019-03-30T14:55:19.539Z,7.80
2019-03-30T14:59:38.411Z,7.50
2019-03-30T15:03:57.927Z,8.23
2019-03-30T15:08:17.705Z,7.50
2019-03-30T15:12:37.377Z,8.00
2019-03-30T15:16:58.764Z,7.47
2019-03-30T15:21:17.708Z,8.60
2019-03-30T15:25:37.677Z,7.43
2019-03-30T15:29:56.535Z,7.17
2019-03-30T15:34:15.535Z,7.50
2019-03-30T15:38:35.880Z,7.43
2019-03-30T15:42:55.461Z,7.00
2019-03-30T15:47:14.567Z,7.80
2019-03-30T15:51:37.385Z,7.23
2019-03-30T15:55:54.772Z,8.70
2019-03-30T16:00:17.802Z,7.70
2019-03-30T16:04:37.105Z,7.30
2019-03-30T16:08:56.387Z,8.27
2019-03-30T16:13:15.425Z,7.77
2019-03-30T16:17:34.890Z,7.37
2019-03-30T16:21:55.395Z,7.60
2019-03-30T16:26:14.287Z,8.37
2019-03-30T16:30:33.761Z,7.27
2019-03-30T16:34:53.701Z,8.73
2019-03-30T16:39:12.871Z,7.37
2019-03-30T16:43:31.873Z,7.57
2019-03-30T16:47:50.818Z,7.03
2019-03-30T16:52:11.015Z,8.53
2019-03-30T16:56:30.140Z,8.07
2019-03-30T17:00:56.190Z,8.10
2019-03-30T17:05:11.190Z,7.03
2019-03-30T17:09:30.658Z,7.10
2019-03-30T17:13:50.394Z,6.20
2019-03-30T17:18:09.366Z,6.60
2019-03-30T17:22:28.371Z,6.27
2019-03-30T17:26:47.727Z,5.83
2019-03-30T17:31:08.027Z,6.70
2019-03-30T17:35:27.522Z,5.70
2019-03-30T17:39:46.677Z,5.73
2019-03-30T17:44:05.970Z,7.10
2019-03-30T17:48:25.622Z,6.80
2019-03-30T17:52:44.799Z,8.07
2019-03-30T17:57:04.188Z,6.60
2019-03-30T18:01:23.249Z,9.13
2019-03-30T18:05:43.393Z,7.87
2019-03-30T18:10:04.376Z,8.53
2019-03-30T18:14:23.338Z,7.33
2019-03-30T18:18:43.527Z,7.60
2019-03-30T18:23:02.550Z,5.60
2019-03-30T18:27:23.886Z,7.17
2019-03-30T18:31:43.029Z,7.77
2019-03-30T18:36:02.604Z,6.50
2019-03-30T18:40:31.404Z,8.00
2019-03-30T18:44:54.189Z,6.10
2019-03-30T18:49:13.486Z,6.37
2019-03-30T18:53:33.206Z,5.73
2019-03-30T18:57:53.730Z,6.70
2019-03-30T19:02:12.781Z,6.67
2019-03-30T19:06:33.581Z,6.57
2019-03-30T19:10:53.581Z,6.93
2019-03-30T19:15:12.682Z,7.03
2019-03-30T19:19:31.793Z,7.80
2019-03-30T19:23:50.793Z,4.27
2019-03-30T19:28:11.299Z,7.20
2019-03-30T19:32:31.081Z,6.03
2019-03-30T19:36:51.030Z,5.60
2019-03-30T19:41:10.366Z,7.67
2019-03-30T19:45:30.904Z,8.17
2019-03-30T19:49:50.250Z,4.00
2019-03-30T19:54:10.093Z,6.03
2019-03-30T19:58:29.161Z,6.23
2019-03-30T20:02:50.418Z,5.53
2019-03-30T20:07:09.424Z,4.93
2019-03-30T20:11:29.039Z,7.33
2019-03-30T20:15:48.064Z,6.40
2019-03-30T20:20:09.521Z,6.30
2019-03-30T20:24:29.404Z,6.60
2019-03-30T20:28:49.195Z,7.47
2019-03-30T20:33:08.123Z,7.50
2019-03-30T20:37:28.690Z,5.50
2019-03-30T20:41:48.026Z,4.03
2019-03-30T20:46:07.157Z,4.47
2019-03-30T20:50:26.895Z,3.97
2019-03-30T20:54:49.387Z,7.03
2019-03-30T20:59:08.526Z,5.87
2019-03-30T21:03:27.588Z,4.10
2019-03-30T21:07:47.273Z,4.70
2019-03-30T21:12:08.821Z,3.63
2019-03-30T21:16:27.874Z,4.80
2019-03-30T21:20:48.835Z,6.07
2019-03-30T21:25:09.145Z,5.03
2019-03-30T21:29:30.001Z,5.87
2019-03-30T21:33:49.958Z,6.60
2019-03-30T21:38:12.011Z,6.80
2019-03-30T21:42:31.724Z,6.80
2019-03-30T21:46:50.917Z,4.70
2019-03-30T21:51:09.964Z,3.53
2019-03-30T21:55:29.440Z,3.27
2019-03-30T21:59:49.109Z,2.70
2019-03-30T22:04:07.973Z,3.20
2019-03-30T22:08:27.228Z,4.30
2019-03-30T22:12:47.578Z,4.20
2019-03-30T22:17:07.265Z,4.53
2019-03-30T22:21:26.431Z,2.87
2019-03-30T22:25:45.390Z,3.97
2019-03-30T22:30:04.852Z,4.17
2019-03-30T22:34:24.394Z,2.97
2019-03-30T22:38:43.405Z,4.63
2019-03-30T22:43:02.461Z,3.53
2019-03-30T22:47:22.062Z,2.77
2019-03-30T22:51:41.034Z,3.87
2019-03-30T22:56:00.471Z,3.27
2019-03-30T23:00:38.968Z,4.87
2019-03-30T23:05:00.154Z,3.40
2019-03-30T23:09:21.394Z,4.27
2019-03-30T23:13:40.283Z,3.63
2019-03-30T23:17:59.413Z,3.53
2019-03-30T23:22:18.368Z,3.10
2019-03-30T23:26:37.851Z,2.70
2019-03-30T23:30:56.663Z,3.47
2019-03-30T23:35:15.661Z,3.50
2019-03-30T23:39:34.714Z,5.13
2019-03-30T23:43:53.794Z,3.20
2019-03-30T23:48:12.745Z,5.00
2019-03-30T23:52:31.718Z,2.63
2019-03-30T23:56:51.076Z,3.17
